createdAt,value
2019-02-20T00:00:10.225Z,77.40
2019-02-20T00:02:43.126Z,77.40
2019-02-20T00:05:14.405Z,77.80
2019-02-20T00:07:44.374Z,76.20
2019-02-20T00:10:14.458Z,76.70
2019-02-20T00:12:47.234Z,77.70
2019-02-20T00:15:17.224Z,77.20
2019-02-20T00:17:48.844Z,77.70
2019-02-20T00:20:18.845Z,77.70
2019-02-20T00:22:50.770Z,78.00
2019-02-20T00:25:21.886Z,78.30
2019-02-20T00:27:51.926Z,78.00
2019-02-20T00:30:26.342Z,78.00
2019-02-20T00:32:56.417Z,77.60
2019-02-20T00:35:27.656Z,78.00
2019-02-20T00:37:57.737Z,79.30
2019-02-20T00:40:27.716Z,80.20
2019-02-20T00:42:58.927Z,81.10
2019-02-20T00:45:58.243Z,81.70
2019-02-20T00:48:54.885Z,81.30
2019-02-20T00:51:51.728Z,80.20
2019-02-20T00:54:23.628Z,80.80
2019-02-20T00:56:53.716Z,80.80
2019-02-20T00:59:23.843Z,80.90
2019-02-20T01:01:55.115Z,79.90
2019-02-20T01:04:25.227Z,79.70
2019-02-20T01:06:55.377Z,79.90
2019-02-20T01:09:25.454Z,80.10
2019-02-20T01:11:55.695Z,80.30
2019-02-20T01:14:28.548Z,81.00
2019-02-20T01:16:59.851Z,80.90
2019-02-20T01:19:29.855Z,81.60
2019-02-20T01:21:59.927Z,81.20
2019-02-20T01:24:29.995Z,80.80
2019-02-20T01:27:00.028Z,80.40
2019-02-20T01:29:30.245Z,80.30
2019-02-20T01:32:01.722Z,80.50
2019-02-20T01:34:31.747Z,80.00
2019-02-20T01:37:05.539Z,80.30
2019-02-20T01:39:35.533Z,80.20
2019-02-20T01:42:05.585Z,80.10
2019-02-20T01:44:37.493Z,80.50
2019-02-20T01:47:07.625Z,78.80
2019-02-20T01:49:39.720Z,78.50
2019-02-20T01:52:09.694Z,78.90
2019-02-20T01:54:39.701Z,79.40
2019-02-20T01:57:11.278Z,80.20
2019-02-20T01:59:41.325Z,81.00
2019-02-20T02:02:11.475Z,81.00
2019-02-20T02:04:42.736Z,81.20
2019-02-20T02:07:12.878Z,81.00
2019-02-20T02:09:44.731Z,81.00
2019-02-20T02:12:14.729Z,81.50
2019-02-20T02:14:48.360Z,82.00
2019-02-20T02:17:18.480Z,82.20
2019-02-20T02:19:48.478Z,81.60
2019-02-20T02:22:18.550Z,82.30
2019-02-20T02:24:48.659Z,82.80
2019-02-20T02:27:18.718Z,82.10
2019-02-20T02:29:51.854Z,81.20
2019-02-20T02:32:23.520Z,80.70
2019-02-20T02:34:53.620Z,80.30
2019-02-20T02:37:23.615Z,81.20
2019-02-20T02:39:54.896Z,80.90
2019-02-20T02:42:26.189Z,80.80
2019-02-20T02:44:56.326Z,80.30
2019-02-20T02:47:26.342Z,80.40
2019-02-20T02:49:56.424Z,80.70
2019-02-20T02:52:30.191Z,80.00
2019-02-20T02:55:02.709Z,79.80
2019-02-20T02:57:32.801Z,80.60
2019-02-20T03:00:02.888Z,81.40
2019-02-20T03:02:32.979Z,81.60
2019-02-20T03:05:04.921Z,81.80
2019-02-20T03:07:34.981Z,82.20
2019-02-20T03:10:07.893Z,81.80
2019-02-20T03:12:39.551Z,82.30
2019-02-20T03:15:12.720Z,82.50
2019-02-20T03:17:42.784Z,83.10
2019-02-20T03:20:14.099Z,82.90
2019-02-20T03:22:44.228Z,82.80
2019-02-20T03:25:15.508Z,82.50
2019-02-20T03:27:45.574Z,83.10
2019-02-20T03:30:15.624Z,83.00
2019-02-20T03:32:45.914Z,82.80
2019-02-20T03:35:16.000Z,82.90
2019-02-20T03:37:48.125Z,82.90
2019-02-20T03:40:17.848Z,82.60
2019-02-20T03:42:49.661Z,82.90
2019-02-20T03:45:19.770Z,83.10
2019-02-20T03:47:53.959Z,83.30
2019-02-20T03:50:25.160Z,83.90
2019-02-20T03:52:56.841Z,84.10
2019-02-20T03:55:26.860Z,84.40
2019-02-20T03:57:56.848Z,84.70
2019-02-20T04:00:29.925Z,84.60
2019-02-20T04:03:00.152Z,83.70
2019-02-20T04:05:30.221Z,83.90
2019-02-20T04:08:02.337Z,84.70
2019-02-20T04:10:32.345Z,85.10
2019-02-20T04:13:06.485Z,84.40
2019-02-20T04:15:38.617Z,84.40
2019-02-20T04:18:11.197Z,83.50
2019-02-20T04:20:42.587Z,83.70
2019-02-20T04:23:14.607Z,82.90
2019-02-20T04:25:44.383Z,82.30
2019-02-20T04:28:15.493Z,81.60
2019-02-20T04:30:45.633Z,81.00
2019-02-20T04:33:16.922Z,81.10
2019-02-20T04:35:47.059Z,81.70
2019-02-20T04:38:17.048Z,82.00
2019-02-20T04:40:51.260Z,82.30
2019-02-20T04:43:21.340Z,82.90
2019-02-20T04:48:15.159Z,82.80
2019-02-20T04:50:45.150Z,83.10
2019-02-20T04:53:15.320Z,83.70
2019-02-20T04:55:48.244Z,84.80
2019-02-20T04:58:21.508Z,86.00
2019-02-20T05:00:51.581Z,86.60
2019-02-20T05:03:23.247Z,86.60
2019-02-20T05:05:53.641Z,86.10
2019-02-20T05:08:24.848Z,85.40
2019-02-20T05:10:57.882Z,85.00
2019-02-20T05:13:27.973Z,84.60
2019-02-20T05:15:59.090Z,84.70
2019-02-20T05:18:29.161Z,84.60
2019-02-20T05:21:00.812Z,84.70
2019-02-20T05:23:30.878Z,84.30
2019-02-20T05:26:00.876Z,83.90
2019-02-20T05:28:34.708Z,83.80
2019-02-20T05:31:06.542Z,84.20
2019-02-20T05:33:36.834Z,84.10
2019-02-20T05:36:06.914Z,84.00
2019-02-20T05:38:37.649Z,83.70
2019-02-20T05:41:09.295Z,82.90
2019-02-20T05:43:39.404Z,82.40
2019-02-20T05:46:11.384Z,82.90
2019-02-20T05:48:42.574Z,83.10
2019-02-20T05:51:13.875Z,83.30
2019-02-20T05:53:48.086Z,84.00
2019-02-20T05:56:18.190Z,84.50
2019-02-20T05:58:48.318Z,85.10
2019-02-20T06:01:21.325Z,84.70
2019-02-20T06:03:52.625Z,83.80
2019-02-20T06:06:23.885Z,83.70
2019-02-20T06:08:54.301Z,83.30
2019-02-20T06:11:26.749Z,83.10
2019-02-20T06:13:56.394Z,83.20
2019-02-20T06:16:29.413Z,83.40
2019-02-20T06:19:04.103Z,83.60
2019-02-20T06:21:35.764Z,83.60
2019-02-20T06:24:07.468Z,83.50
2019-02-20T06:26:37.545Z,83.50
2019-02-20T06:29:10.858Z,83.50
2019-02-20T06:31:41.005Z,82.80
2019-02-20T06:34:11.155Z,82.30
2019-02-20T06:36:41.282Z,82.40
2019-02-20T06:39:15.664Z,82.60
2019-02-20T06:41:45.678Z,83.10
2019-02-20T06:44:17.319Z,83.20
2019-02-20T06:46:47.419Z,82.50
2019-02-20T06:49:17.518Z,81.80
2019-02-20T06:51:48.951Z,81.50
2019-02-20T06:54:19.058Z,81.00
2019-02-20T06:56:52.148Z,80.70
2019-02-20T06:59:24.301Z,80.60
2019-02-20T07:02:00.643Z,80.90
2019-02-20T07:04:33.377Z,80.60
2019-02-20T07:07:18.157Z,79.80
2019-02-20T07:10:32.297Z,79.80
2019-02-20T07:13:41.530Z,80.30
2019-02-20T07:16:58.866Z,80.40
2019-02-20T07:20:01.366Z,80.00
2019-02-20T07:23:25.204Z,80.40
2019-02-20T07:26:31.239Z,80.00
2019-02-20T07:29:25.125Z,80.00
2019-02-20T07:31:56.326Z,80.80
2019-02-20T07:34:26.432Z,80.50
2019-02-20T07:36:58.094Z,80.40
2019-02-20T07:39:28.104Z,82.00
2019-02-20T07:41:59.396Z,80.80
2019-02-20T07:44:32.267Z,78.50
2019-02-20T07:47:06.364Z,71.10
2019-02-20T07:49:38.205Z,63.80
2019-02-20T07:52:10.927Z,60.00
2019-02-20T07:54:44.667Z,56.90
2019-02-20T07:57:16.313Z,57.60
2019-02-20T07:59:46.326Z,58.80
2019-02-20T08:02:16.351Z,61.20
2019-02-20T08:04:46.426Z,62.70
2019-02-20T08:07:16.485Z,65.70
2019-02-20T08:09:52.163Z,67.50
2019-02-20T08:12:22.338Z,69.60
2019-02-20T08:14:53.723Z,70.60
2019-02-20T08:17:24.105Z,70.90
2019-02-20T08:19:54.179Z,71.80
2019-02-20T08:22:24.173Z,73.10
2019-02-20T08:24:55.713Z,71.10
2019-02-20T08:27:25.787Z,70.30
2019-02-20T08:29:58.318Z,69.50
2019-02-20T08:32:28.869Z,68.30
2019-02-20T08:34:58.937Z,67.60
2019-02-20T08:37:29.109Z,67.10
2019-02-20T08:40:04.921Z,68.20
2019-02-20T08:42:35.028Z,67.30
2019-02-20T08:45:08.539Z,66.30
2019-02-20T08:47:39.004Z,66.40
2019-02-20T08:50:13.989Z,65.50
2019-02-20T08:52:47.075Z,62.10
2019-02-20T08:55:31.555Z,59.60
2019-02-20T08:57:57.044Z,58.20
2019-02-20T09:00:27.165Z,58.40
2019-02-20T09:02:57.251Z,59.00
2019-02-20T09:05:27.363Z,58.90
2019-02-20T09:07:57.505Z,58.50
2019-02-20T09:10:27.615Z,58.00
2019-02-20T09:12:57.691Z,57.50
2019-02-20T09:15:27.773Z,57.60
2019-02-20T09:17:57.794Z,57.30
2019-02-20T09:20:27.867Z,55.60
2019-02-20T09:22:57.989Z,53.20
2019-02-20T09:25:28.160Z,54.00
2019-02-20T09:27:58.282Z,54.50
2019-02-20T09:30:29.871Z,54.60
2019-02-20T09:33:00.304Z,56.10
2019-02-20T09:35:30.370Z,57.40
2019-02-20T09:38:00.456Z,57.40
2019-02-20T09:40:30.554Z,59.10
2019-02-20T09:43:00.662Z,58.60
2019-02-20T09:45:30.748Z,61.30
2019-02-20T09:48:00.905Z,59.90
2019-02-20T09:50:30.932Z,60.30
2019-02-20T09:53:01.030Z,60.90
2019-02-20T09:55:31.124Z,59.40
2019-02-20T09:58:01.215Z,60.10
2019-02-20T10:00:31.300Z,59.00
2019-02-20T10:03:01.404Z,59.80
2019-02-20T10:05:31.411Z,59.70
2019-02-20T10:08:01.535Z,58.90
2019-02-20T10:10:31.698Z,58.50
2019-02-20T10:13:01.803Z,58.30
2019-02-20T10:15:31.884Z,57.80
2019-02-20T10:18:01.898Z,57.50
2019-02-20T10:20:31.980Z,57.50
2019-02-20T10:23:02.084Z,57.40
2019-02-20T10:25:32.185Z,56.20
2019-02-20T10:28:02.352Z,56.90
2019-02-20T10:30:32.448Z,58.60
2019-02-20T10:33:02.646Z,58.70
2019-02-20T10:35:32.728Z,58.60
2019-02-20T10:38:02.800Z,56.20
2019-02-20T10:40:32.918Z,56.50
2019-02-20T10:43:03.627Z,55.40
2019-02-20T10:45:33.856Z,55.60
2019-02-20T10:48:03.875Z,54.10
2019-02-20T10:50:33.959Z,53.10
2019-02-20T10:53:04.066Z,52.00
2019-02-20T10:55:34.147Z,52.70
2019-02-20T10:58:04.237Z,53.20
2019-02-20T11:00:34.524Z,52.50
2019-02-20T11:03:04.531Z,51.80
2019-02-20T11:05:34.545Z,51.20
2019-02-20T11:08:04.627Z,50.90
2019-02-20T11:10:34.632Z,50.50
2019-02-20T11:13:04.724Z,50.30
2019-02-20T11:15:34.831Z,49.40
2019-02-20T11:18:04.931Z,50.50
2019-02-20T11:20:35.021Z,50.40
2019-02-20T11:23:07.033Z,51.10
2019-02-20T11:25:37.130Z,51.50
2019-02-20T11:28:07.236Z,51.10
2019-02-20T11:30:42.761Z,52.30
2019-02-20T11:33:09.442Z,51.90
2019-02-20T11:35:39.538Z,52.00
2019-02-20T11:38:09.735Z,53.30
2019-02-20T11:40:39.721Z,53.50
2019-02-20T11:43:09.732Z,52.50
2019-02-20T11:45:41.288Z,52.70
2019-02-20T11:48:12.222Z,53.70
2019-02-20T11:50:45.569Z,51.40
2019-02-20T11:53:15.746Z,50.90
2019-02-20T11:55:45.764Z,50.00
2019-02-20T11:58:15.854Z,51.10
2019-02-20T12:00:45.942Z,49.90
2019-02-20T12:03:16.044Z,50.30
2019-02-20T12:05:46.238Z,51.10
2019-02-20T12:08:16.646Z,50.40
2019-02-20T12:10:46.876Z,48.80
2019-02-20T12:13:16.912Z,49.30
2019-02-20T12:15:47.072Z,50.40
2019-02-20T12:18:17.746Z,50.60
2019-02-20T12:20:49.076Z,49.20
2019-02-20T12:23:19.096Z,50.10
2019-02-20T12:25:49.178Z,48.70
2019-02-20T12:28:19.232Z,48.70
2019-02-20T12:30:50.398Z,47.90
2019-02-20T12:33:20.502Z,47.00
2019-02-20T12:35:50.580Z,46.90
2019-02-20T12:38:20.679Z,46.60
2019-02-20T12:40:52.344Z,47.10
2019-02-20T12:43:24.060Z,46.30
2019-02-20T12:45:55.528Z,46.10
2019-02-20T12:48:25.634Z,46.30
2019-02-20T12:50:57.583Z,46.30
2019-02-20T12:53:28.708Z,46.10
2019-02-20T12:55:58.863Z,46.20
2019-02-20T12:58:28.889Z,46.00
2019-02-20T13:01:01.431Z,46.50
2019-02-20T13:03:31.559Z,46.70
2019-02-20T13:06:04.548Z,46.90
2019-02-20T13:08:35.920Z,47.70
2019-02-20T13:11:06.019Z,47.40
2019-02-20T13:13:36.701Z,47.10
2019-02-20T13:16:09.655Z,47.00
2019-02-20T13:18:40.116Z,46.90
2019-02-20T13:21:11.103Z,47.40
2019-02-20T13:23:47.077Z,46.90
2019-02-20T13:26:16.449Z,47.00
2019-02-20T13:28:46.569Z,47.80
2019-02-20T13:31:16.733Z,48.10
2019-02-20T13:33:46.937Z,48.40
2019-02-20T13:36:18.177Z,48.10
2019-02-20T13:38:51.820Z,47.60
2019-02-20T13:41:21.979Z,47.60
2019-02-20T13:43:52.125Z,47.70
2019-02-20T13:46:25.611Z,48.40
2019-02-20T13:48:58.585Z,49.00
2019-02-20T13:51:37.436Z,49.40
2019-02-20T13:54:10.025Z,50.30
2019-02-20T13:56:43.151Z,52.00
2019-02-20T13:59:14.566Z,53.20
2019-02-20T14:01:48.812Z,53.80
2019-02-20T14:04:19.199Z,53.80
2019-02-20T14:06:49.371Z,54.10
2019-02-20T14:09:19.594Z,54.10
2019-02-20T14:11:49.761Z,54.30
2019-02-20T14:14:19.927Z,55.20
2019-02-20T14:16:51.682Z,54.20
2019-02-20T14:19:21.781Z,54.20
2019-02-20T14:21:51.972Z,54.00
2019-02-20T14:24:22.132Z,53.80
2019-02-20T14:26:55.921Z,53.90
2019-02-20T14:29:25.740Z,54.00
2019-02-20T14:31:56.235Z,53.60
2019-02-20T14:34:27.524Z,53.00
2019-02-20T14:37:02.906Z,53.10
2019-02-20T14:39:32.285Z,52.90
2019-02-20T14:42:04.338Z,54.00
2019-02-20T14:44:35.933Z,54.60
2019-02-20T14:47:06.120Z,53.70
2019-02-20T14:49:39.092Z,53.80
2019-02-20T14:52:09.256Z,53.80
2019-02-20T14:54:41.217Z,54.00
2019-02-20T14:57:19.442Z,54.30
2019-02-20T14:59:44.224Z,54.50
2019-02-20T15:02:14.467Z,54.40
2019-02-20T15:04:46.194Z,54.50
2019-02-20T15:07:16.360Z,54.30
2019-02-20T15:09:46.567Z,54.90
2019-02-20T15:12:16.927Z,55.30
2019-02-20T15:14:47.695Z,55.90
2019-02-20T15:17:17.895Z,55.50
2019-02-20T15:19:48.079Z,55.40
2019-02-20T15:22:18.343Z,56.30
2019-02-20T15:24:48.497Z,56.50
2019-02-20T15:27:19.244Z,57.20
2019-02-20T15:29:50.429Z,57.60
2019-02-20T15:32:20.528Z,57.80
2019-02-20T15:34:50.740Z,58.00
2019-02-20T15:37:22.104Z,58.40
2019-02-20T15:39:52.613Z,59.10
2019-02-20T15:42:22.827Z,59.50
2019-02-20T15:44:53.041Z,60.00
2019-02-20T15:47:23.291Z,60.10
2019-02-20T15:49:53.497Z,60.70
2019-02-20T15:52:23.663Z,61.00
2019-02-20T15:54:54.635Z,61.40
2019-02-20T15:57:24.830Z,61.80
2019-02-20T15:59:55.070Z,62.00
2019-02-20T16:02:25.264Z,62.50
2019-02-20T16:04:55.480Z,62.10
2019-02-20T16:07:25.699Z,62.80
2019-02-20T16:09:55.979Z,62.40
2019-02-20T16:12:26.245Z,63.10
2019-02-20T16:14:56.419Z,63.70
2019-02-20T16:17:26.585Z,64.90
2019-02-20T16:19:56.799Z,65.90
2019-02-20T16:22:28.505Z,65.60
2019-02-20T16:24:58.651Z,66.10
2019-02-20T16:27:28.920Z,66.70
2019-02-20T16:29:59.135Z,66.70
2019-02-20T16:32:29.351Z,66.80
2019-02-20T16:34:59.590Z,67.40
2019-02-20T16:37:30.194Z,67.80
2019-02-20T16:40:01.370Z,68.40
2019-02-20T16:42:31.562Z,69.40
2019-02-20T16:45:01.843Z,70.30
2019-02-20T16:47:32.281Z,69.60
2019-02-20T16:50:02.510Z,69.70
2019-02-20T16:52:33.130Z,70.20
2019-02-20T16:55:03.342Z,70.30
2019-02-20T16:57:33.562Z,70.60
2019-02-20T17:00:03.934Z,70.30
2019-02-20T17:02:35.155Z,70.90
2019-02-20T17:05:13.111Z,71.00
2019-02-20T17:07:39.280Z,71.20
2019-02-20T17:10:10.211Z,71.80
2019-02-20T17:12:44.026Z,71.30
2019-02-20T17:15:23.295Z,70.80
2019-02-20T17:17:54.080Z,70.80
2019-02-20T17:20:26.363Z,71.80
2019-02-20T17:22:56.793Z,71.40
2019-02-20T17:25:27.379Z,71.50
2019-02-20T17:28:05.476Z,71.90
2019-02-20T17:30:32.190Z,71.20
2019-02-20T17:33:04.472Z,71.30
2019-02-20T17:35:37.309Z,71.50
2019-02-20T17:38:07.849Z,71.70
2019-02-20T17:40:54.332Z,71.00
2019-02-20T17:43:26.436Z,71.70
2019-02-20T17:45:56.346Z,73.10
2019-02-20T17:48:28.474Z,73.20
2019-02-20T17:50:58.378Z,73.20
2019-02-20T17:53:28.918Z,73.00
2019-02-20T17:55:59.174Z,72.70
2019-02-20T17:58:29.642Z,72.20
2019-02-20T18:01:01.071Z,72.30
2019-02-20T18:03:31.296Z,72.20
2019-02-20T18:06:01.528Z,73.10
2019-02-20T18:08:31.748Z,72.40
2019-02-20T18:11:02.769Z,72.10
2019-02-20T18:13:33.003Z,72.60
2019-02-20T18:16:03.288Z,72.00
2019-02-20T18:18:33.539Z,72.00
2019-02-20T18:21:04.137Z,72.30
2019-02-20T18:23:35.876Z,72.30
2019-02-20T18:26:06.251Z,72.10
2019-02-20T18:28:36.561Z,71.10
2019-02-20T18:31:06.837Z,71.00
2019-02-20T18:33:42.904Z,71.40
2019-02-20T18:36:13.145Z,71.50
2019-02-20T18:38:45.173Z,71.70
2019-02-20T18:41:16.649Z,71.40
2019-02-20T18:43:50.732Z,71.30
2019-02-20T18:46:24.557Z,72.00
2019-02-20T18:48:54.844Z,72.10
2019-02-20T18:51:27.633Z,72.70
2019-02-20T18:53:57.363Z,72.60
2019-02-20T18:56:27.725Z,73.40
2019-02-20T18:58:58.864Z,73.20
2019-02-20T19:01:29.340Z,73.10
2019-02-20T19:04:01.192Z,73.20
2019-02-20T19:06:32.839Z,73.30
2019-02-20T19:09:26.955Z,73.60
2019-02-20T19:12:43.022Z,74.00
2019-02-20T19:16:01.890Z,74.10
2019-02-20T19:19:22.413Z,74.60
2019-02-20T19:22:43.088Z,74.70
2019-02-20T19:25:48.805Z,75.00
2019-02-20T19:28:49.022Z,74.30
2019-02-20T19:32:02.648Z,75.10
2019-02-20T19:35:07.125Z,74.90
2019-02-20T19:38:14.341Z,75.00
2019-02-20T19:41:23.325Z,75.50
2019-02-20T19:44:10.972Z,76.60
2019-02-20T19:47:19.831Z,76.40
2019-02-20T19:50:45.038Z,76.40
2019-02-20T19:53:43.818Z,76.80
2019-02-20T19:57:04.162Z,77.00
2019-02-20T19:59:52.750Z,77.80
2019-02-20T20:02:53.048Z,78.10
2019-02-20T20:06:06.242Z,78.60
2019-02-20T20:09:24.265Z,78.90
2019-02-20T20:12:41.314Z,78.50
2019-02-20T20:15:47.326Z,78.60
2019-02-20T20:19:03.812Z,78.80
2019-02-20T20:22:11.004Z,79.40
2019-02-20T20:25:25.940Z,79.70
2019-02-20T20:28:34.920Z,80.40
2019-02-20T20:31:40.493Z,80.40
2019-02-20T20:34:50.861Z,80.40
2019-02-20T20:37:56.126Z,80.20
2019-02-20T20:40:59.463Z,80.00
2019-02-20T20:44:06.588Z,79.40
2019-02-20T20:47:08.137Z,79.40
2019-02-20T20:49:59.502Z,79.50
2019-02-20T20:52:46.719Z,79.60
2019-02-20T20:55:46.824Z,79.70
2019-02-20T20:58:57.157Z,79.40
2019-02-20T21:01:59.797Z,79.10
2019-02-20T21:05:26.455Z,79.20
2019-02-20T21:08:26.327Z,79.90
2019-02-20T21:12:05.739Z,79.20
2019-02-20T21:14:55.690Z,79.20
2019-02-20T21:18:05.564Z,80.00
2019-02-20T21:20:59.612Z,80.20
2019-02-20T21:24:12.413Z,79.50
2019-02-20T21:27:06.402Z,79.90
2019-02-20T21:30:14.138Z,80.60
2019-02-20T21:33:17.680Z,80.50
2019-02-20T21:36:16.352Z,80.60
2019-02-20T21:39:28.831Z,81.20
2019-02-20T21:42:19.642Z,81.20
2019-02-20T21:45:40.648Z,81.00
2019-02-20T21:48:43.873Z,81.00
2019-02-20T21:51:52.387Z,81.30
2019-02-20T21:55:02.082Z,81.20
2019-02-20T21:58:07.658Z,80.30
2019-02-20T22:00:51.946Z,80.40
2019-02-20T22:03:56.156Z,81.00
2019-02-20T22:07:02.979Z,80.30
2019-02-20T22:10:02.045Z,80.60
2019-02-20T22:13:03.289Z,80.80
2019-02-20T22:16:00.755Z,79.80
2019-02-20T22:19:01.721Z,79.00
2019-02-20T22:22:24.963Z,78.60
2019-02-20T22:25:29.822Z,79.00
2019-02-20T22:28:40.113Z,80.60
2019-02-20T22:31:49.374Z,78.70
2019-02-20T22:34:36.861Z,79.00
2019-02-20T22:37:45.141Z,79.20
2019-02-20T22:40:41.514Z,79.50
2019-02-20T22:44:14.933Z,79.90
2019-02-20T22:47:06.795Z,80.20
2019-02-20T22:50:06.950Z,80.10
2019-02-20T22:53:00.724Z,79.90
2019-02-20T22:56:01.402Z,80.20
2019-02-20T22:59:08.453Z,79.90
2019-02-20T23:02:03.589Z,80.70
2019-02-20T23:04:59.117Z,79.80
2019-02-20T23:08:02.006Z,79.80
2019-02-20T23:11:11.411Z,79.80
2019-02-20T23:13:57.156Z,79.50
2019-02-20T23:16:31.582Z,79.10
2019-02-20T23:19:00.004Z,79.00
2019-02-20T23:21:30.032Z,78.90
2019-02-20T23:24:01.742Z,78.90
2019-02-20T23:26:31.807Z,79.00
2019-02-20T23:29:01.825Z,79.40
2019-02-20T23:31:33.478Z,79.00
2019-02-20T23:34:07.796Z,79.20
2019-02-20T23:36:38.162Z,79.20
2019-02-20T23:39:12.226Z,79.50
2019-02-20T23:41:43.924Z,79.50
2019-02-20T23:44:13.957Z,79.30
2019-02-20T23:46:44.016Z,79.70
2019-02-20T23:49:15.876Z,79.40
2019-02-20T23:51:45.950Z,79.40
2019-02-20T23:54:16.077Z,79.50
2019-02-20T23:56:46.074Z,79.60
2019-02-20T23:59:16.927Z,80.10
